Time;durP1;ratioP1;P1;durP2;ratioP2;P2;SDS_P1;SDS_P2;PMS_P1;PMS_P2;Temp;Humidity;BMP_temperature;BMP_pressure;BME280_temperature;BME280_humidity;BME280_pressure;Samples;Min_cycle;Max_cycle;Signal;HPM_P1;HPM_P2
2022/11/14 00:02:09;;;;;;;23.30;16.13;;;1.20;99.90;;;;;;4995214;28;20053;-68
2022/11/14 00:04:34;;;;;;;25.75;16.15;;;1.10;99.90;;;;;;4993033;28;20117;-68
2022/11/14 00:07:00;;;;;;;23.60;17.45;;;1.10;99.90;;;;;;4995185;28;20030;-68
2022/11/14 00:09:26;;;;;;;27.00;15.90;;;1.10;99.90;;;;;;4993955;28;20047;-68
2022/11/14 00:11:52;;;;;;;25.02;16.67;;;1.10;99.90;;;;;;4997749;28;20030;-67
2022/11/14 00:14:18;;;;;;;27.75;17.15;;;1.10;99.90;;;;;;4996221;28;20401;-68
2022/11/14 00:16:44;;;;;;;24.05;15.95;;;1.10;99.90;;;;;;4993449;28;20490;-67
2022/11/14 00:19:09;;;;;;;26.02;16.40;;;1.10;99.90;;;;;;4993383;28;20026;-68
2022/11/14 00:21:35;;;;;;;26.25;17.58;;;1.10;99.90;;;;;;4994963;28;20030;-67
2022/11/14 00:24:01;;;;;;;44.33;19.45;;;1.10;99.90;;;;;;4993620;28;20596;-68
2022/11/14 00:26:27;;;;;;;23.00;15.82;;;1.10;99.90;;;;;;4999619;28;20611;-68
2022/11/14 00:28:53;;;;;;;21.58;15.90;;;1.00;99.90;;;;;;4995397;28;20034;-68
2022/11/14 00:31:19;;;;;;;22.30;14.93;;;1.00;99.90;;;;;;4991101;28;20033;-68
2022/11/14 00:33:45;;;;;;;23.50;16.60;;;1.00;99.90;;;;;;5001151;28;20025;-68
2022/11/14 00:36:11;;;;;;;24.30;16.95;;;0.90;99.90;;;;;;4994701;28;20133;-68
2022/11/14 00:38:36;;;;;;;26.08;17.00;;;0.90;99.90;;;;;;4995787;28;20038;-68
2022/11/14 00:41:02;;;;;;;25.75;17.15;;;0.90;99.90;;;;;;4995822;28;20109;-68
2022/11/14 00:43:28;;;;;;;26.75;17.58;;;0.90;99.90;;;;;;4990640;28;20405;-68
2022/11/14 00:45:53;;;;;;;25.88;17.65;;;0.90;99.90;;;;;;4993877;28;20494;-68
2022/11/14 00:48:19;;;;;;;26.95;17.08;;;0.90;99.90;;;;;;4996011;28;20014;-67
2022/11/14 00:50:45;;;;;;;26.42;17.67;;;0.90;99.90;;;;;;4992981;28;20561;-68
2022/11/14 00:53:12;;;;;;;28.88;17.48;;;0.90;99.90;;;;;;4998018;28;20030;-68
2022/11/14 00:55:38;;;;;;;27.25;17.38;;;0.90;99.90;;;;;;4999722;28;20041;-68
2022/11/14 00:58:03;;;;;;;24.10;16.70;;;0.90;99.90;;;;;;4993022;28;20404;-68
2022/11/14 01:00:29;;;;;;;27.90;16.75;;;0.80;99.90;;;;;;4997253;28;20093;-69
2022/11/14 01:02:57;;;;;;;24.88;17.08;;;0.80;99.90;;;;;;4999920;28;20105;-68
2022/11/14 01:05:24;;;;;;;32.50;18.83;;;0.80;99.90;;;;;;4992653;28;20034;-67
2022/11/14 01:07:49;;;;;;;29.00;16.92;;;0.80;99.90;;;;;;4992592;28;20026;-68
2022/11/14 01:10:16;;;;;;;27.48;16.83;;;0.80;99.90;;;;;;4997976;28;20022;-67
2022/11/14 01:12:41;;;;;;;32.50;16.70;;;0.80;99.90;;;;;;5001098;28;20633;-68
2022/11/14 01:15:08;;;;;;;31.27;18.88;;;0.80;99.90;;;;;;4995179;28;20030;-68
2022/11/14 01:17:33;;;;;;;30.40;16.83;;;0.80;99.90;;;;;;4995628;28;20045;-68
2022/11/14 01:19:59;;;;;;;31.10;17.75;;;0.80;99.90;;;;;;4991047;28;20038;-68
2022/11/14 01:22:25;;;;;;;27.17;17.13;;;0.80;99.90;;;;;;4995809;28;20042;-68
2022/11/14 01:24:50;;;;;;;29.17;17.73;;;0.80;99.90;;;;;;5000720;28;20547;-68
2022/11/14 01:27:16;;;;;;;26.83;17.30;;;0.80;99.90;;;;;;5001408;28;20116;-68
2022/11/14 01:29:42;;;;;;;27.60;17.15;;;0.80;99.90;;;;;;5001411;28;20070;-68
2022/11/14 01:32:08;;;;;;;26.95;17.48;;;0.80;99.90;;;;;;4995231;28;20030;-68
2022/11/14 01:34:34;;;;;;;24.77;15.13;;;0.70;99.90;;;;;;5001888;28;20104;-67
2022/11/14 01:36:59;;;;;;;22.13;15.48;;;0.70;99.90;;;;;;4998266;28;20027;-68
2022/11/14 01:39:26;;;;;;;25.73;16.98;;;0.60;99.90;;;;;;4999867;28;20037;-68
2022/11/14 01:41:52;;;;;;;27.38;17.92;;;0.60;99.90;;;;;;5002898;28;20494;-68
2022/11/14 01:44:40;;;;;;;29.55;17.42;;;0.60;99.90;;;;;;5001655;28;20485;-68
2022/11/14 01:47:06;;;;;;;23.00;16.00;;;0.60;99.90;;;;;;4999623;28;20037;-67
2022/11/14 01:49:39;;;;;;;30.38;17.63;;;0.60;99.90;;;;;;4998161;28;20029;-68
2022/11/14 01:52:09;;;;;;;32.63;17.55;;;0.50;99.90;;;;;;4996814;28;20469;-68
2022/11/14 01:54:42;;;;;;;32.55;18.45;;;0.50;99.90;;;;;;5000268;28;20066;-67
2022/11/14 01:57:09;;;;;;;30.83;18.38;;;0.60;99.90;;;;;;5000024;28;20777;-68
2022/11/14 01:59:42;;;;;;;32.45;18.33;;;0.60;99.90;;;;;;4999473;28;20069;-68
2022/11/14 02:02:16;;;;;;;34.30;18.75;;;0.60;99.90;;;;;;5013991;28;20418;-67
2022/11/14 02:04:46;;;;;;;31.92;18.15;;;0.60;99.90;;;;;;4997368;28;20038;-68
2022/11/14 02:07:13;;;;;;;36.67;20.15;;;0.60;99.90;;;;;;4996755;28;20038;-68
2022/11/14 02:09:44;;;;;;;41.45;21.00;;;0.60;99.90;;;;;;4997402;28;20034;-68
2022/11/14 02:12:12;;;;;;;39.60;20.67;;;0.60;99.90;;;;;;4995789;28;20026;-68
2022/11/14 02:14:41;;;;;;;40.92;21.02;;;0.60;99.90;;;;;;4996705;28;20497;-68
2022/11/14 02:17:07;;;;;;;37.55;18.77;;;0.60;99.90;;;;;;5015274;28;20049;-68
2022/11/14 02:19:47;;;;;;;38.33;21.17;;;0.70;99.90;;;;;;4996732;28;20065;-68
2022/11/14 02:22:12;;;;;;;37.58;19.83;;;0.70;99.90;;;;;;4993973;28;20121;-68
2022/11/14 02:24:38;;;;;;;41.03;21.23;;;0.70;99.90;;;;;;5000905;28;20528;-68
2022/11/14 02:27:06;;;;;;;42.80;21.65;;;0.70;99.90;;;;;;4998698;28;20580;-69
2022/11/14 02:29:33;;;;;;;43.58;21.95;;;0.70;99.90;;;;;;4997728;28;20035;-68
2022/11/14 02:31:59;;;;;;;34.20;19.30;;;0.70;99.90;;;;;;4998630;28;20517;-68
2022/11/14 02:34:25;;;;;;;42.88;21.83;;;0.70;99.90;;;;;;4991733;28;20061;-68
2022/11/14 02:36:51;;;;;;;37.75;19.42;;;0.60;99.90;;;;;;4996645;28;20057;-68
2022/11/14 02:39:16;;;;;;;31.92;18.80;;;0.60;99.90;;;;;;4999473;28;20510;-68
2022/11/14 02:41:42;;;;;;;30.23;18.13;;;0.60;99.90;;;;;;5000698;28;20473;-68
2022/11/14 02:44:08;;;;;;;34.13;19.45;;;0.50;99.90;;;;;;4996932;28;20022;-68
2022/11/14 02:46:33;;;;;;;37.95;19.70;;;0.50;99.90;;;;;;4995130;28;20030;-68
2022/11/14 02:48:59;;;;;;;33.97;19.63;;;0.50;99.90;;;;;;4994743;28;20478;-69
2022/11/14 02:51:25;;;;;;;37.17;20.23;;;0.50;99.90;;;;;;4996711;28;20029;-68
2022/11/14 02:53:50;;;;;;;38.30;20.90;;;0.50;99.90;;;;;;4999552;28;20494;-68
2022/11/14 02:56:16;;;;;;;37.03;20.65;;;0.50;99.90;;;;;;4998705;28;20039;-68
2022/11/14 02:58:42;;;;;;;41.80;21.10;;;0.50;99.90;;;;;;4997194;28;20042;-68
2022/11/14 03:01:07;;;;;;;40.25;20.75;;;0.50;99.90;;;;;;4995351;28;20483;-68
2022/11/14 03:03:33;;;;;;;35.88;20.33;;;0.60;99.90;;;;;;5000234;28;20037;-68
2022/11/14 03:06:00;;;;;;;47.28;22.15;;;0.60;99.90;;;;;;4997652;28;20022;-68
2022/11/14 03:08:25;;;;;;;44.20;22.63;;;0.60;99.90;;;;;;5013149;28;20041;-67
2022/11/14 03:10:51;;;;;;;43.97;21.88;;;0.60;99.90;;;;;;4995099;28;20030;-68
2022/11/14 03:13:17;;;;;;;38.90;21.02;;;0.60;99.90;;;;;;5001540;28;20050;-68
2022/11/14 03:15:42;;;;;;;47.92;23.00;;;0.60;99.90;;;;;;5004157;28;20034;-67
2022/11/14 03:18:08;;;;;;;37.20;20.05;;;0.60;99.90;;;;;;5002900;28;20344;-68
2022/11/14 03:20:34;;;;;;;45.75;21.77;;;0.50;99.90;;;;;;4997744;28;20045;-68
2022/11/14 03:23:00;;;;;;;39.70;21.75;;;0.50;99.90;;;;;;4998980;28;20026;-68
2022/11/14 03:25:25;;;;;;;42.95;21.38;;;0.50;99.90;;;;;;4994568;28;20118;-68
2022/11/14 03:27:51;;;;;;;38.42;20.83;;;0.50;99.90;;;;;;4996523;28;20076;-68
2022/11/14 03:30:17;;;;;;;48.85;23.35;;;0.50;99.90;;;;;;4996253;28;21200;-68
2022/11/14 03:32:43;;;;;;;34.72;20.17;;;0.50;99.90;;;;;;4994808;28;20088;-67
2022/11/14 03:35:09;;;;;;;41.25;20.45;;;0.40;99.90;;;;;;4994320;28;20206;-68
2022/11/14 03:37:34;;;;;;;42.53;21.33;;;0.40;99.90;;;;;;4994474;28;20025;-68
2022/11/14 03:40:00;;;;;;;50.90;22.50;;;0.40;99.90;;;;;;4998083;28;20524;-68
2022/11/14 03:42:25;;;;;;;47.65;22.45;;;0.40;99.90;;;;;;4998988;28;20089;-68
2022/11/14 03:44:51;;;;;;;57.17;24.08;;;0.40;99.90;;;;;;5012617;28;20076;-68
2022/11/14 03:47:17;;;;;;;59.45;24.25;;;0.50;99.90;;;;;;4996441;28;20022;-68
2022/11/14 03:49:43;;;;;;;53.83;24.60;;;0.50;99.90;;;;;;4999292;28;20041;-68
2022/11/14 03:52:10;;;;;;;58.95;25.33;;;0.60;99.90;;;;;;4997496;28;20030;-67
2022/11/14 03:54:37;;;;;;;61.60;23.38;;;0.60;99.90;;;;;;5000872;28;20497;-68
2022/11/14 03:57:02;;;;;;;55.85;24.45;;;0.60;99.90;;;;;;4996728;28;20584;-68
2022/11/14 03:59:28;;;;;;;57.35;25.17;;;0.60;99.90;;;;;;4992050;28;20041;-68
2022/11/14 04:01:54;;;;;;;53.25;23.60;;;0.60;99.90;;;;;;4997844;28;20352;-67
2022/11/14 04:04:19;;;;;;;55.85;22.73;;;0.60;99.90;;;;;;4990218;28;20037;-68
2022/11/14 04:06:45;;;;;;;46.55;22.52;;;0.60;99.90;;;;;;4993863;28;20045;-68
2022/11/14 04:09:11;;;;;;;48.03;22.95;;;0.50;99.90;;;;;;5003637;28;20146;-68
2022/11/14 04:11:36;;;;;;;44.78;21.50;;;0.50;99.90;;;;;;4997616;28;20070;-68
2022/11/14 04:14:02;;;;;;;44.22;22.77;;;0.40;99.90;;;;;;4991687;28;20395;-68
2022/11/14 04:16:28;;;;;;;44.78;21.98;;;0.40;99.90;;;;;;4993229;28;20053;-68
2022/11/14 04:18:54;;;;;;;43.70;22.15;;;0.40;99.90;;;;;;4998898;28;20029;-69
2022/11/14 04:21:19;;;;;;;41.08;20.40;;;0.40;99.90;;;;;;4996548;28;20030;-67
2022/11/14 04:23:45;;;;;;;53.95;24.33;;;0.40;99.90;;;;;;4994305;28;20038;-68
2022/11/14 04:26:11;;;;;;;42.92;21.55;;;0.40;99.90;;;;;;4997687;28;20128;-68
2022/11/14 04:28:36;;;;;;;43.92;21.05;;;0.40;99.90;;;;;;4997341;28;20022;-68
2022/11/14 04:31:02;;;;;;;50.08;21.83;;;0.40;99.90;;;;;;4996158;28;20025;-68
2022/11/14 04:33:28;;;;;;;43.25;21.42;;;0.30;99.90;;;;;;4997422;28;20018;-67
2022/11/14 04:35:53;;;;;;;38.55;20.35;;;0.30;99.90;;;;;;4994436;28;20121;-68
2022/11/14 04:38:19;;;;;;;45.47;20.83;;;0.30;99.90;;;;;;4992751;28;20510;-67
2022/11/14 04:40:49;;;;;;;47.40;22.65;;;0.20;99.90;;;;;;4994490;28;20040;-68
2022/11/14 04:43:15;;;;;;;45.60;21.35;;;0.20;99.90;;;;;;4998229;28;20044;-66
2022/11/14 04:45:40;;;;;;;43.53;20.85;;;0.20;99.90;;;;;;4998447;28;20030;-68
2022/11/14 04:48:06;;;;;;;42.13;21.58;;;0.20;99.90;;;;;;4996133;28;20026;-68
2022/11/14 04:50:32;;;;;;;50.10;22.48;;;0.20;99.90;;;;;;4995379;28;20532;-68
2022/11/14 04:52:57;;;;;;;42.97;21.27;;;0.30;99.90;;;;;;4995032;28;20022;-68
2022/11/14 04:55:23;;;;;;;51.60;21.65;;;0.20;99.90;;;;;;4997209;28;20583;-68
2022/11/14 04:57:55;;;;;;;39.30;20.70;;;0.20;99.90;;;;;;5000494;28;20026;-67
2022/11/14 05:00:22;;;;;;;44.15;21.75;;;0.20;99.90;;;;;;5001187;28;20041;-68
2022/11/14 05:02:47;;;;;;;43.70;20.65;;;0.20;99.90;;;;;;5002556;28;20108;-68
2022/11/14 05:05:13;;;;;;;38.55;20.25;;;0.20;99.90;;;;;;4996777;28;20974;-68
2022/11/14 05:07:39;;;;;;;36.47;19.02;;;0.20;99.90;;;;;;5000456;28;20157;-68
2022/11/14 05:10:05;;;;;;;35.88;17.55;;;0.10;99.90;;;;;;5000026;28;20030;-68
2022/11/14 05:12:30;;;;;;;36.83;19.58;;;0.10;99.90;;;;;;5000508;28;20081;-68
2022/11/14 05:14:56;;;;;;;36.33;19.35;;;0.10;99.90;;;;;;5003751;28;20030;-68
2022/11/14 05:17:22;;;;;;;47.85;22.20;;;0.00;99.90;;;;;;4997729;28;20125;-68
2022/11/14 05:19:48;;;;;;;41.75;21.42;;;0.10;99.90;;;;;;4996883;28;20057;-68
2022/11/14 05:22:13;;;;;;;51.53;24.23;;;0.10;99.90;;;;;;5005378;28;20035;-67
2022/11/14 05:24:39;;;;;;;55.90;24.05;;;0.10;99.90;;;;;;4997837;28;20058;-68
2022/11/14 05:27:05;;;;;;;61.15;26.17;;;0.20;99.90;;;;;;4997898;28;20561;-68
2022/11/14 05:29:30;;;;;;;60.78;25.77;;;0.20;99.90;;;;;;4999579;28;20445;-68
2022/11/14 05:31:56;;;;;;;56.78;23.40;;;0.20;99.90;;;;;;4998431;28;20037;-67
2022/11/14 05:34:23;;;;;;;58.95;24.02;;;0.30;99.90;;;;;;4996943;28;20034;-68
2022/11/14 05:36:48;;;;;;;65.60;28.13;;;0.30;99.90;;;;;;5001030;28;20060;-68
2022/11/14 05:39:15;;;;;;;60.28;27.08;;;0.30;99.90;;;;;;4999983;28;20058;-68
2022/11/14 05:41:40;;;;;;;62.80;26.85;;;0.30;99.90;;;;;;4994791;28;20494;-68
2022/11/14 05:44:06;;;;;;;52.47;25.50;;;0.20;99.90;;;;;;5002265;28;20065;-68
2022/11/14 05:46:32;;;;;;;52.78;24.08;;;0.20;99.90;;;;;;4998340;28;20033;-68
2022/11/14 05:48:58;;;;;;;46.97;21.98;;;0.20;99.90;;;;;;4998920;28;20093;-70
2022/11/14 05:51:23;;;;;;;49.13;22.85;;;0.10;99.90;;;;;;5007758;28;20544;-68
2022/11/14 05:53:49;;;;;;;46.28;23.85;;;0.10;99.90;;;;;;4998027;28;20364;-69
2022/11/14 05:56:15;;;;;;;51.55;22.58;;;0.10;99.90;;;;;;4998660;28;20043;-68
2022/11/14 05:58:41;;;;;;;47.80;22.02;;;0.10;99.90;;;;;;5006204;28;20038;-68
2022/11/14 06:01:15;;;;;;;51.60;25.27;;;0.10;99.90;;;;;;4999434;28;20033;-68
2022/11/14 06:03:44;;;;;;;59.95;27.55;;;0.10;99.90;;;;;;5001597;28;20069;-69
2022/11/14 06:06:12;;;;;;;60.13;25.55;;;0.20;99.90;;;;;;4998262;28;20037;-68
2022/11/14 06:08:38;;;;;;;59.20;24.80;;;0.20;99.90;;;;;;4999082;28;20076;-68
2022/11/14 06:11:10;;;;;;;58.03;24.33;;;0.20;99.90;;;;;;5002323;28;20413;-68
2022/11/14 06:13:35;;;;;;;62.28;26.08;;;0.30;99.90;;;;;;4996109;28;20044;-68
2022/11/14 06:16:04;;;;;;;59.17;23.83;;;0.30;99.90;;;;;;4997728;28;20034;-68
2022/11/14 06:18:30;;;;;;;54.90;22.85;;;0.30;99.90;;;;;;5000635;28;20476;-68
2022/11/14 06:21:05;;;;;;;60.78;25.42;;;0.30;99.90;;;;;;5002071;28;20132;-68
2022/11/14 06:23:31;;;;;;;54.58;24.95;;;0.30;99.90;;;;;;4999477;28;20536;-68
2022/11/14 06:26:01;;;;;;;60.85;27.08;;;0.30;99.90;;;;;;4996023;28;20031;-68
2022/11/14 06:28:27;;;;;;;60.15;26.23;;;0.30;99.90;;;;;;5006924;28;20034;-68
2022/11/14 06:31:00;;;;;;;64.93;25.35;;;0.40;99.90;;;;;;5001397;28;20546;-68
2022/11/14 06:33:27;;;;;;;73.30;30.63;;;0.50;99.90;;;;;;4979003;28;20069;-68
2022/11/14 06:36:00;;;;;;;60.30;26.30;;;0.50;99.90;;;;;;4992660;28;20478;-69
2022/11/14 06:38:27;;;;;;;63.25;26.48;;;0.60;99.90;;;;;;5001293;28;20037;-69
2022/11/14 06:41:01;;;;;;;65.22;26.63;;;0.60;99.90;;;;;;5002551;28;20046;-69
2022/11/14 06:43:27;;;;;;;49.45;23.35;;;0.60;99.90;;;;;;5002407;28;20119;-69
2022/11/14 06:45:54;;;;;;;56.40;24.50;;;0.60;99.90;;;;;;5010822;28;20417;-69
2022/11/14 06:48:20;;;;;;;54.17;22.05;;;0.60;99.90;;;;;;4999569;28;20038;-69
2022/11/14 06:50:54;;;;;;;48.00;22.27;;;0.60;99.90;;;;;;4999349;28;20377;-69
2022/11/14 06:53:20;;;;;;;52.17;22.63;;;0.60;99.90;;;;;;4995702;28;20497;-69
2022/11/14 06:55:57;;;;;;;48.95;20.65;;;0.60;99.90;;;;;;4996311;28;20076;-69
2022/11/14 06:58:25;;;;;;;46.65;20.15;;;0.60;99.90;;;;;;4994782;28;20161;-69
2022/11/14 07:00:51;;;;;;;44.03;20.92;;;0.60;99.90;;;;;;5002997;28;20083;-69
2022/11/14 07:03:16;;;;;;;49.22;19.65;;;0.50;99.90;;;;;;4998419;28;20042;-69
2022/11/14 07:05:42;;;;;;;42.92;19.42;;;0.50;99.90;;;;;;4997133;28;20027;-69
2022/11/14 07:08:08;;;;;;;41.67;20.58;;;0.60;99.90;;;;;;4992883;28;20033;-69
2022/11/14 07:10:33;;;;;;;54.40;22.25;;;0.60;99.90;;;;;;5000339;28;20026;-69
2022/11/14 07:12:59;;;;;;;44.83;21.38;;;0.60;99.90;;;;;;4997847;28;20088;-70
2022/11/14 07:15:25;;;;;;;39.03;21.05;;;0.70;99.90;;;;;;5002662;28;20037;-69
2022/11/14 07:17:50;;;;;;;44.03;20.50;;;0.80;99.90;;;;;;4998624;28;20034;-69
2022/11/14 07:20:17;;;;;;;43.95;20.90;;;0.80;99.90;;;;;;4997188;28;20033;-69
2022/11/14 07:22:45;;;;;;;44.65;21.77;;;1.00;99.90;;;;;;4991770;28;20049;-69
2022/11/14 07:25:11;;;;;;;44.83;21.98;;;1.00;99.90;;;;;;4995000;28;20414;-69
2022/11/14 07:27:37;;;;;;;39.15;19.95;;;1.10;99.90;;;;;;4998947;28;20545;-68
2022/11/14 07:30:03;;;;;;;50.25;21.15;;;1.10;99.90;;;;;;5001241;28;20121;-68
2022/11/14 07:32:28;;;;;;;34.78;18.50;;;1.10;99.90;;;;;;4997737;28;20042;-69
2022/11/14 07:34:54;;;;;;;40.40;20.00;;;1.20;99.90;;;;;;4995645;28;20034;-67
2022/11/14 07:37:19;;;;;;;39.08;18.40;;;1.20;99.90;;;;;;5000919;28;20026;-67
2022/11/14 07:39:45;;;;;;;38.95;19.35;;;1.20;99.90;;;;;;4999063;28;20053;-67
2022/11/14 07:42:11;;;;;;;35.65;19.95;;;1.30;99.90;;;;;;4996422;28;20026;-67
2022/11/14 07:44:36;;;;;;;35.72;19.58;;;1.30;99.90;;;;;;4993132;28;20062;-67
2022/11/14 07:47:02;;;;;;;37.17;19.60;;;1.40;99.90;;;;;;4994198;28;20113;-67
2022/11/14 07:49:28;;;;;;;36.08;19.60;;;1.50;99.90;;;;;;4996252;28;20036;-67
2022/11/14 07:51:53;;;;;;;40.10;20.58;;;1.70;99.90;;;;;;4999052;28;20061;-68
2022/11/14 07:54:19;;;;;;;40.97;21.83;;;1.80;99.90;;;;;;4999495;28;20026;-67
2022/11/14 07:56:45;;;;;;;52.70;24.73;;;1.90;99.90;;;;;;4998372;28;20034;-67
2022/11/14 07:59:10;;;;;;;59.65;23.67;;;2.00;99.90;;;;;;4991855;28;20687;-67
2022/11/14 08:01:36;;;;;;;54.67;24.42;;;2.10;99.90;;;;;;5002146;28;20042;-67
2022/11/14 08:04:01;;;;;;;50.70;25.25;;;2.30;99.90;;;;;;4997489;28;20066;-68
2022/11/14 08:06:27;;;;;;;58.72;26.35;;;2.40;99.90;;;;;;4995911;28;20068;-67
2022/11/14 08:08:53;;;;;;;53.95;25.15;;;2.60;99.90;;;;;;4999203;28;20494;-67
2022/11/14 08:11:46;;;;;;;57.50;25.42;;;2.80;99.90;;;;;;4991261;28;20113;-67
2022/11/14 08:14:04;;;;;;;56.80;25.38;;;3.00;99.90;;;;;;4996839;28;20566;-67
2022/11/14 08:16:30;;;;;;;63.80;27.27;;;3.30;99.90;;;;;;4977644;28;20066;-67
2022/11/14 08:18:55;;;;;;;58.47;27.20;;;3.50;99.90;;;;;;4998919;28;20022;-67
2022/11/14 08:21:21;;;;;;;60.55;28.08;;;3.70;99.90;;;;;;5000836;28;20122;-67
2022/11/14 08:23:47;;;;;;;61.20;28.73;;;4.00;99.90;;;;;;4998657;28;20065;-67
2022/11/14 08:26:12;;;;;;;53.90;26.60;;;4.10;99.90;;;;;;4996490;28;20032;-67
2022/11/14 08:28:38;;;;;;;54.15;25.83;;;4.20;99.90;;;;;;4993802;28;20097;-67
2022/11/14 08:31:04;;;;;;;44.30;24.20;;;4.30;99.90;;;;;;4991244;28;20023;-67
2022/11/14 08:33:30;;;;;;;50.40;25.92;;;4.40;99.90;;;;;;4996880;28;20033;-67
2022/11/14 08:36:03;;;;;;;41.65;22.45;;;4.50;99.90;;;;;;4993229;28;20027;-67
2022/11/14 08:38:31;;;;;;;41.00;23.67;;;4.60;99.90;;;;;;4995502;28;20049;-66
2022/11/14 08:40:58;;;;;;;43.95;21.60;;;4.70;99.90;;;;;;4996132;28;20486;-67
2022/11/14 08:43:24;;;;;;;39.20;20.08;;;4.80;99.90;;;;;;4995703;28;20035;-67
2022/11/14 08:45:49;;;;;;;31.65;19.95;;;4.90;99.90;;;;;;4992573;28;20022;-67
2022/11/14 08:48:15;;;;;;;38.28;21.75;;;5.10;99.90;;;;;;4994843;28;20031;-67
2022/11/14 08:50:41;;;;;;;40.55;21.77;;;5.30;99.90;;;;;;4994138;28;20062;-67
2022/11/14 08:53:07;;;;;;;35.13;20.90;;;5.60;99.90;;;;;;4998965;28;20072;-67
2022/11/14 08:55:32;;;;;;;31.73;19.83;;;5.90;99.90;;;;;;4992744;28;20034;-67
2022/11/14 08:57:58;;;;;;;28.02;17.38;;;6.40;99.90;;;;;;4996039;28;20022;-69
2022/11/14 09:00:24;;;;;;;21.98;15.73;;;7.10;99.90;;;;;;4994408;28;20045;-67
2022/11/14 09:02:49;;;;;;;22.08;15.07;;;7.90;99.90;;;;;;4997514;28;20454;-67
2022/11/14 09:05:15;;;;;;;20.33;12.55;;;8.70;99.90;;;;;;4997749;28;20494;-68
2022/11/14 09:07:41;;;;;;;13.23;11.88;;;9.50;99.90;;;;;;4994250;28;20076;-67
2022/11/14 09:10:07;;;;;;;14.93;11.43;;;10.20;99.90;;;;;;4994543;28;20109;-68
2022/11/14 09:12:33;;;;;;;15.30;12.38;;;10.80;99.90;;;;;;4990895;28;20030;-68
2022/11/14 09:14:59;;;;;;;12.43;11.23;;;11.30;99.90;;;;;;4994528;28;20038;-68
2022/11/14 09:17:24;;;;;;;12.63;11.43;;;11.60;99.90;;;;;;4995084;28;20026;-68
2022/11/14 09:19:50;;;;;;;13.77;12.15;;;11.70;99.90;;;;;;4992826;28;20031;-70
2022/11/14 09:22:16;;;;;;;11.40;10.30;;;11.50;99.90;;;;;;4992686;28;20122;-68
2022/11/14 09:24:42;;;;;;;14.38;12.90;;;11.60;99.90;;;;;;4992812;28;20538;-68
2022/11/14 09:27:07;;;;;;;13.82;12.45;;;11.60;99.90;;;;;;4991226;28;20030;-68
2022/11/14 09:29:33;;;;;;;14.18;11.48;;;11.60;99.90;;;;;;4995903;28;20040;-67
2022/11/14 09:31:59;;;;;;;12.10;9.77;;;11.80;99.90;;;;;;4994045;28;20561;-67
2022/11/14 09:34:24;;;;;;;11.27;10.27;;;12.00;99.90;;;;;;4998178;28;20052;-67
2022/11/14 09:36:50;;;;;;;12.23;11.13;;;12.30;99.90;;;;;;4996720;28;20470;-68
2022/11/14 09:39:16;;;;;;;11.82;10.73;;;12.50;99.90;;;;;;4998373;28;20493;-68
2022/11/14 09:42:00;;;;;;;10.73;9.77;;;12.80;99.90;;;;;;4996705;28;20509;-68
2022/11/14 09:44:49;;;;;;;10.68;9.68;;;12.80;99.90;;;;;;5000275;28;20109;-67
2022/11/14 09:47:41;;;;;;;11.88;10.65;;;12.80;99.90;;;;;;4999647;28;20089;-68
2022/11/14 09:50:13;;;;;;;11.43;10.43;;;12.70;99.90;;;;;;4999037;28;20037;-67
2022/11/14 09:52:44;;;;;;;11.40;10.20;;;12.60;99.90;;;;;;4998743;28;20088;-68
2022/11/14 09:55:13;;;;;;;10.95;9.40;;;12.70;99.90;;;;;;5000527;28;20018;-68
2022/11/14 09:57:44;;;;;;;11.40;10.27;;;12.60;99.90;;;;;;4997797;28;20043;-68
2022/11/14 10:00:21;;;;;;;10.40;9.43;;;12.60;99.90;;;;;;4997965;28;20057;-69
2022/11/14 10:03:24;;;;;;;10.85;9.85;;;12.50;99.90;;;;;;5002383;28;20129;-67
2022/11/14 10:06:14;;;;;;;10.70;9.60;;;12.60;99.90;;;;;;4997612;28;20047;-68
2022/11/14 10:08:54;;;;;;;10.43;9.43;;;12.50;99.90;;;;;;4997222;28;20062;-67
2022/11/14 10:11:42;;;;;;;9.70;8.70;;;12.60;99.90;;;;;;4997252;28;20494;-68
2022/11/14 10:14:35;;;;;;;10.10;9.20;;;12.60;99.90;;;;;;4998996;28;20038;-68
2022/11/14 10:17:31;;;;;;;11.13;10.10;;;12.60;99.90;;;;;;4995753;28;20695;-67
2022/11/14 10:20:13;;;;;;;11.40;9.07;;;12.60;99.90;;;;;;4998782;28;20492;-67
2022/11/14 10:23:03;;;;;;;9.73;8.82;;;12.70;99.90;;;;;;4995125;28;20580;-68
2022/11/14 10:25:52;;;;;;;10.13;9.15;;;12.60;99.90;;;;;;4997535;28;20030;-67
2022/11/14 10:28:59;;;;;;;10.23;9.07;;;12.70;99.90;;;;;;4993617;28;20041;-68
2022/11/14 10:31:55;;;;;;;10.45;9.55;;;12.80;99.90;;;;;;4996583;28;20496;-67
2022/11/14 10:34:32;;;;;;;10.25;9.40;;;12.80;99.90;;;;;;5001860;28;20026;-67
2022/11/14 10:37:09;;;;;;;9.95;9.05;;;12.70;99.90;;;;;;4997013;28;20037;-68
2022/11/14 10:39:47;;;;;;;9.63;8.65;;;13.00;99.90;;;;;;4993546;28;20026;-68
2022/11/14 10:42:38;;;;;;;10.57;8.48;;;12.90;99.90;;;;;;4995464;28;20141;-68
2022/11/14 10:45:15;;;;;;;8.90;8.05;;;12.80;99.90;;;;;;4988956;28;20034;-67
2022/11/14 10:47:48;;;;;;;9.88;7.85;;;12.70;99.90;;;;;;4995429;28;20109;-68
2022/11/14 10:50:23;;;;;;;9.00;8.20;;;12.70;99.90;;;;;;4998132;28;20041;-68
2022/11/14 10:52:55;;;;;;;10.00;9.00;;;12.60;99.90;;;;;;4994469;28;20059;-67
2022/11/14 10:55:21;;;;;;;8.40;7.60;;;12.50;99.90;;;;;;4992326;28;20033;-69
2022/11/14 10:57:47;;;;;;;8.48;7.78;;;12.40;99.90;;;;;;4998306;28;20454;-67
2022/11/14 11:00:15;;;;;;;8.75;7.90;;;12.30;99.90;;;;;;4993417;28;20657;-67
2022/11/14 11:02:51;;;;;;;8.80;7.95;;;12.30;99.90;;;;;;5002696;28;20037;-67
2022/11/14 11:05:20;;;;;;;8.35;7.63;;;12.30;99.90;;;;;;4992100;28;20441;-68
2022/11/14 11:13:38;;;;;;;8.55;7.75;;;12.40;99.90;;;;;;5000336;28;20597;-68
2022/11/14 11:16:05;;;;;;;9.20;8.40;;;12.50;99.90;;;;;;5000942;28;20404;-68
2022/11/14 11:18:33;;;;;;;13.20;8.63;;;12.50;99.90;;;;;;4993055;28;20415;-68
2022/11/14 11:21:07;;;;;;;8.88;8.00;;;12.50;99.90;;;;;;5003845;28;20038;-68
2022/11/14 11:23:33;;;;;;;8.75;7.80;;;12.40;99.90;;;;;;4995333;28;20081;-67
2022/11/14 11:26:06;;;;;;;9.90;8.73;;;12.50;99.90;;;;;;4997908;28;20084;-67
2022/11/14 11:28:34;;;;;;;9.23;8.35;;;12.40;99.90;;;;;;4998322;28;20061;-67
2022/11/14 11:31:05;;;;;;;9.40;8.40;;;12.60;99.90;;;;;;4995882;28;20014;-68
2022/11/14 11:33:33;;;;;;;11.65;8.55;;;12.70;99.90;;;;;;4999102;28;20018;-68
2022/11/14 11:36:02;;;;;;;9.13;8.25;;;12.70;99.90;;;;;;4999164;28;20362;-67
2022/11/14 11:38:30;;;;;;;8.98;8.18;;;12.70;99.90;;;;;;4997094;28;20058;-67
2022/11/14 11:41:13;;;;;;;9.25;8.15;;;12.80;99.90;;;;;;4996947;28;20572;-67
2022/11/14 11:43:54;;;;;;;9.25;8.30;;;12.90;99.90;;;;;;5000633;28;20449;-67
2022/11/14 11:46:46;;;;;;;10.45;9.52;;;13.00;99.90;;;;;;4998487;28;20084;-67
2022/11/14 11:49:38;;;;;;;8.32;7.47;;;13.10;99.90;;;;;;4998577;28;20072;-67
2022/11/14 11:52:13;;;;;;;7.82;7.13;;;13.40;99.90;;;;;;4980645;28;20052;-67
2022/11/14 11:55:00;;;;;;;7.82;7.13;;;13.60;99.90;;;;;;4998925;28;20030;-68
2022/11/14 11:57:46;;;;;;;7.40;6.70;;;13.80;99.90;;;;;;4997576;28;20046;-68
2022/11/14 12:00:20;;;;;;;6.65;5.97;;;14.00;99.90;;;;;;4998253;28;20410;-68
2022/11/14 12:02:49;;;;;;;8.10;7.40;;;14.20;99.90;;;;;;4994812;28;20046;-67
2022/11/14 12:05:17;;;;;;;7.95;7.25;;;14.20;99.90;;;;;;4996167;28;20042;-67
2022/11/14 12:08:03;;;;;;;8.07;7.38;;;14.30;99.90;;;;;;4993234;28;20037;-68
2022/11/14 12:10:32;;;;;;;6.85;6.22;;;14.30;99.90;;;;;;4996417;28;20034;-67
2022/11/14 12:13:19;;;;;;;6.82;6.22;;;14.30;99.90;;;;;;4993530;28;20416;-68
2022/11/14 12:15:53;;;;;;;7.32;6.72;;;14.40;99.90;;;;;;4995700;28;20053;-67
2022/11/14 12:18:27;;;;;;;7.20;6.30;;;14.40;99.90;;;;;;4999699;28;20026;-67
2022/11/14 12:21:34;;;;;;;7.57;6.90;;;14.60;99.90;;;;;;4998637;28;20058;-67
2022/11/14 12:24:21;;;;;;;7.47;6.82;;;14.60;99.90;;;;;;4973974;28;20462;-68
2022/11/14 12:27:05;;;;;;;6.07;5.57;;;14.50;99.90;;;;;;4970170;28;20046;-67
2022/11/14 12:29:51;;;;;;;6.35;5.68;;;14.60;99.90;;;;;;4989649;28;20414;-68
2022/11/14 12:32:32;;;;;;;6.45;5.85;;;14.60;99.90;;;;;;4994942;28;20145;-67
2022/11/14 12:35:02;;;;;;;6.40;5.80;;;14.60;99.90;;;;;;4995555;28;20110;-67
2022/11/14 12:37:30;;;;;;;6.90;6.15;;;14.50;99.90;;;;;;4999656;28;20030;-67
2022/11/14 12:40:07;;;;;;;5.88;5.38;;;14.60;99.90;;;;;;4998120;28;20112;-67
2022/11/14 12:42:34;;;;;;;5.75;5.25;;;14.70;99.90;;;;;;4996098;28;20025;-67
2022/11/14 12:44:59;;;;;;;4.60;4.15;;;14.70;99.90;;;;;;4990813;28;20053;-67
2022/11/14 12:47:27;;;;;;;5.10;4.60;;;14.70;99.90;;;;;;5000330;28;20502;-67
2022/11/14 12:49:52;;;;;;;4.85;4.35;;;14.60;99.90;;;;;;5001314;28;20041;-66
2022/11/14 12:52:39;;;;;;;5.15;4.60;;;14.50;99.90;;;;;;4994250;28;20018;-67
2022/11/14 12:55:25;;;;;;;5.10;4.30;;;14.50;99.90;;;;;;4996590;28;20045;-66